createdAt,value
2023-04-25T00:01:48.634Z,58.65
2023-04-25T00:04:50.561Z,58.59
2023-04-25T00:07:52.357Z,58.69
2023-04-25T00:10:53.837Z,58.91
2023-04-25T00:13:55.365Z,58.74
2023-04-25T00:16:57.084Z,58.68
2023-04-25T00:19:59.197Z,58.92
2023-04-25T00:23:00.728Z,58.78
2023-04-25T00:26:02.334Z,58.65
2023-04-25T00:29:04.001Z,58.59
2023-04-25T00:32:05.586Z,58.87
2023-04-25T00:35:07.685Z,58.82
2023-04-25T00:38:09.170Z,58.59
2023-04-25T00:41:11.103Z,58.71
2023-04-25T00:44:13.183Z,58.85
2023-04-25T00:47:15.538Z,58.53
2023-04-25T00:50:17.405Z,58.59
2023-04-25T00:53:19.058Z,58.80
2023-04-25T00:56:22.238Z,58.77
2023-04-25T00:59:24.256Z,58.93
2023-04-25T01:02:26.928Z,58.97
2023-04-25T01:05:28.571Z,58.72
2023-04-25T01:08:30.216Z,58.88
2023-04-25T01:11:31.925Z,58.92
2023-04-25T01:14:33.788Z,59.08
2023-04-25T01:17:35.739Z,58.97
2023-04-25T01:20:38.230Z,59.00
2023-04-25T01:23:41.453Z,58.88
2023-04-25T01:26:50.529Z,58.94
2023-04-25T01:29:56.836Z,59.00
2023-04-25T01:33:00.140Z,59.08
2023-04-25T01:36:04.406Z,58.99
2023-04-25T01:39:06.035Z,59.02
2023-04-25T01:42:07.702Z,58.88
2023-04-25T01:45:11.636Z,59.09
2023-04-25T01:48:14.638Z,59.00
2023-04-25T01:51:18.964Z,58.99
2023-04-25T01:54:21.168Z,59.02
2023-04-25T01:57:23.011Z,58.95
2023-04-25T02:00:24.774Z,59.02
2023-04-25T02:03:26.667Z,59.07
2023-04-25T02:06:28.873Z,59.23
2023-04-25T02:09:32.425Z,59.27
2023-04-25T02:12:36.965Z,58.99
2023-04-25T02:15:59.462Z,59.15
2023-04-25T02:19:01.163Z,59.00
2023-04-25T02:22:02.886Z,59.09
2023-04-25T02:25:05.624Z,59.15
2023-04-25T02:28:07.281Z,59.19
2023-04-25T02:31:08.843Z,59.05
2023-04-25T02:34:10.378Z,59.40
2023-04-25T02:37:13.894Z,59.33
2023-04-25T02:40:15.516Z,59.10
2023-04-25T02:43:17.160Z,59.06
2023-04-25T02:46:28.658Z,59.11
2023-04-25T02:49:39.728Z,59.19
2023-04-25T02:52:41.252Z,59.24
2023-04-25T02:55:48.903Z,59.35
2023-04-25T02:58:50.718Z,59.15
2023-04-25T03:01:52.408Z,59.17
2023-04-25T03:04:54.818Z,59.50
2023-04-25T03:07:56.369Z,59.10
2023-04-25T03:10:58.407Z,59.12
2023-04-25T03:14:00.273Z,59.38
2023-04-25T03:17:02.310Z,59.72
2023-04-25T03:20:05.101Z,59.41
2023-04-25T03:23:06.994Z,59.60
2023-04-25T03:26:08.894Z,59.82
2023-04-25T03:29:10.453Z,59.40
2023-04-25T03:32:14.087Z,59.38
2023-04-25T03:35:15.769Z,59.45
2023-04-25T03:38:18.115Z,59.58
2023-04-25T03:41:21.045Z,59.47
2023-04-25T03:44:29.435Z,59.53
2023-04-25T03:47:31.265Z,59.40
2023-04-25T03:50:33.470Z,58.98
2023-04-25T03:53:35.240Z,59.49
2023-04-25T03:56:56.704Z,59.28
2023-04-25T04:00:02.195Z,59.18
2023-04-25T04:03:14.958Z,59.26
2023-04-25T04:06:17.633Z,59.30
2023-04-25T04:09:22.887Z,59.12
2023-04-25T04:12:24.405Z,59.29
2023-04-25T04:15:25.966Z,59.15
2023-04-25T04:18:28.943Z,59.02
2023-04-25T04:21:32.841Z,59.13
2023-04-25T04:24:35.114Z,59.22
2023-04-25T04:27:41.525Z,59.08
2023-04-25T04:31:11.987Z,59.14
2023-04-25T04:34:13.696Z,59.11
2023-04-25T04:37:15.761Z,59.22
2023-04-25T04:40:18.630Z,59.18
2023-04-25T04:43:26.886Z,59.24
2023-04-25T04:46:43.206Z,59.20
2023-04-25T04:49:48.200Z,59.31
2023-04-25T04:53:07.077Z,59.37
2023-04-25T04:56:32.917Z,59.32
2023-04-25T04:59:50.953Z,59.31
2023-04-25T05:03:12.551Z,59.53
2023-04-25T05:06:30.124Z,59.69
2023-04-25T05:10:04.555Z,59.66
2023-04-25T05:13:26.306Z,59.80
2023-04-25T05:16:47.042Z,59.40
2023-04-25T05:20:10.233Z,59.47
2023-04-25T05:23:36.394Z,59.81
2023-04-25T05:26:56.730Z,59.87
2023-04-25T05:30:30.597Z,59.86
2023-04-25T05:33:41.893Z,60.05
2023-04-25T05:36:43.493Z,59.86
2023-04-25T05:39:44.991Z,59.78
2023-04-25T05:43:00.920Z,59.75
2023-04-25T05:46:19.543Z,59.72
2023-04-25T05:49:35.183Z,59.82
2023-04-25T05:53:10.177Z,59.97
2023-04-25T05:56:15.369Z,60.09
2023-04-25T05:59:16.840Z,59.79
2023-04-25T06:02:19.483Z,60.04
2023-04-25T06:05:21.466Z,59.99
2023-04-25T06:08:23.476Z,59.86
2023-04-25T06:11:24.975Z,60.01
2023-04-25T06:14:28.944Z,60.06
2023-04-25T06:17:31.530Z,60.00
2023-04-25T06:20:33.793Z,60.08
2023-04-25T06:23:36.268Z,60.04
2023-04-25T06:26:41.497Z,59.84
2023-04-25T06:29:43.225Z,60.06
2023-04-25T06:32:44.875Z,59.98
2023-04-25T06:35:46.637Z,60.23
2023-04-25T06:38:51.154Z,59.96
2023-04-25T06:41:53.110Z,60.04
2023-04-25T06:45:13.216Z,59.98
2023-04-25T06:48:16.485Z,60.10
2023-04-25T06:51:17.981Z,60.13
2023-04-25T06:54:20.596Z,60.52
2023-04-25T06:57:31.701Z,59.92
2023-04-25T07:00:44.389Z,60.28
2023-04-25T07:03:46.204Z,60.43
2023-04-25T07:06:52.657Z,60.61
2023-04-25T07:09:59.286Z,60.62
2023-04-25T07:13:01.726Z,60.96
2023-04-25T07:16:04.100Z,60.78
2023-04-25T07:19:06.958Z,60.63
2023-04-25T07:22:08.861Z,60.80
2023-04-25T07:25:12.980Z,60.78
2023-04-25T07:28:14.880Z,61.26
2023-04-25T07:31:18.945Z,60.82
2023-04-25T07:34:20.434Z,60.97
2023-04-25T07:37:22.087Z,61.14
2023-04-25T07:40:37.548Z,61.07
2023-04-25T07:43:42.744Z,61.17
2023-04-25T07:46:44.513Z,61.23
2023-04-25T07:49:46.655Z,61.37
2023-04-25T07:52:48.397Z,61.30
2023-04-25T07:56:00.287Z,61.52
2023-04-25T07:59:06.255Z,61.46
2023-04-25T08:02:08.628Z,61.33
2023-04-25T08:05:13.106Z,61.35
2023-04-25T08:08:17.083Z,61.45
2023-04-25T08:11:18.783Z,61.16
2023-04-25T08:14:20.733Z,61.32
2023-04-25T08:17:23.757Z,61.21
2023-04-25T08:20:25.999Z,61.07
2023-04-25T08:23:30.274Z,61.33
2023-04-25T08:26:40.101Z,61.39
2023-04-25T08:29:43.039Z,61.33
2023-04-25T08:32:45.256Z,61.57
2023-04-25T08:35:59.981Z,61.70
2023-04-25T08:39:02.758Z,61.64
2023-04-25T08:42:08.919Z,61.46
2023-04-25T08:45:11.826Z,61.46
2023-04-25T08:48:16.801Z,61.70
2023-04-25T08:51:26.861Z,61.50
2023-04-25T08:54:35.658Z,61.61
2023-04-25T08:57:52.938Z,61.57
2023-04-25T09:00:54.807Z,61.60
2023-04-25T09:03:58.787Z,61.56
2023-04-25T09:07:00.407Z,61.76
2023-04-25T09:10:04.249Z,61.90
2023-04-25T09:13:12.355Z,61.57
2023-04-25T09:16:34.652Z,61.10
2023-04-25T09:20:14.787Z,61.50
2023-04-25T09:23:16.324Z,61.52
2023-04-25T09:26:22.318Z,61.37
2023-04-25T09:29:35.940Z,61.36
2023-04-25T09:32:38.181Z,61.36
2023-04-25T09:35:43.228Z,61.25
2023-04-25T09:38:49.215Z,61.28
2023-04-25T09:42:04.677Z,61.39
2023-04-25T09:45:08.305Z,61.20
2023-04-25T09:48:22.835Z,61.11
2023-04-25T09:51:28.798Z,61.04
2023-04-25T09:54:32.451Z,61.24
2023-04-25T09:57:53.165Z,61.24
2023-04-25T10:00:59.078Z,61.17
2023-04-25T10:04:11.815Z,60.88
2023-04-25T10:07:22.223Z,60.97
2023-04-25T10:10:26.729Z,61.06
2023-04-25T10:13:30.643Z,60.90
2023-04-25T10:16:32.352Z,60.97
2023-04-25T10:19:34.445Z,60.59
2023-04-25T10:22:46.830Z,60.63
2023-04-25T10:25:49.877Z,60.76
2023-04-25T10:29:02.568Z,60.58
2023-04-25T10:32:04.444Z,60.58
2023-04-25T10:35:19.152Z,60.58
2023-04-25T10:38:20.880Z,60.57
2023-04-25T10:41:23.813Z,60.75
2023-04-25T10:44:29.829Z,60.47
2023-04-25T10:47:44.078Z,60.45
2023-04-25T10:50:45.696Z,60.64
2023-04-25T10:54:08.660Z,54.74
2023-04-25T10:57:30.712Z,51.00
2023-04-25T11:00:47.969Z,49.79
2023-04-25T11:03:59.579Z,48.23
2023-04-25T11:07:08.270Z,47.63
2023-04-25T11:10:10.224Z,44.45
2023-04-25T11:13:15.396Z,42.78
2023-04-25T11:16:26.893Z,41.71
2023-04-25T11:19:30.127Z,40.99
2023-04-25T11:22:32.354Z,40.28
2023-04-25T11:25:35.495Z,39.91
2023-04-25T11:28:39.187Z,39.83
2023-04-25T11:31:45.788Z,40.61
2023-04-25T11:34:47.614Z,40.80
2023-04-25T11:37:49.484Z,40.99
2023-04-25T11:40:55.596Z,41.35
2023-04-25T11:43:57.168Z,41.38
2023-04-25T11:46:58.807Z,41.84
2023-04-25T11:50:01.576Z,43.88
2023-04-25T11:53:03.081Z,45.40
2023-04-25T11:56:11.416Z,46.38
2023-04-25T11:59:13.891Z,46.86
2023-04-25T12:02:27.096Z,47.17
2023-04-25T12:05:33.929Z,47.66
2023-04-25T12:08:36.211Z,48.13
2023-04-25T12:11:53.728Z,48.53
2023-04-25T12:14:56.138Z,48.86
2023-04-25T12:17:57.643Z,49.00
2023-04-25T12:20:59.284Z,49.42
2023-04-25T12:24:15.413Z,49.67
2023-04-25T12:27:19.678Z,49.99
2023-04-25T12:30:21.314Z,50.31
2023-04-25T12:33:23.750Z,50.62
2023-04-25T12:36:25.224Z,50.78
2023-04-25T12:39:26.801Z,50.69
2023-04-25T12:42:28.639Z,51.20
2023-04-25T12:45:30.138Z,51.26
2023-04-25T12:48:32.228Z,51.55
2023-04-25T12:51:33.875Z,52.03
2023-04-25T12:54:36.217Z,52.03
2023-04-25T12:57:37.713Z,52.07
2023-04-25T13:00:39.656Z,52.21
2023-04-25T13:03:41.459Z,52.49
2023-04-25T13:06:43.251Z,52.47
2023-04-25T13:09:44.750Z,52.81
2023-04-25T13:12:46.918Z,52.81
2023-04-25T13:15:48.597Z,53.13
2023-04-25T13:18:50.071Z,52.89
2023-04-25T13:21:51.794Z,53.17
2023-04-25T13:24:53.460Z,53.42
2023-04-25T13:27:54.980Z,53.50
2023-04-25T13:30:56.503Z,53.58
2023-04-25T13:33:57.968Z,53.60
2023-04-25T13:36:59.702Z,53.90
2023-04-25T13:40:04.814Z,54.14
2023-04-25T13:43:07.429Z,54.08
2023-04-25T13:46:10.932Z,54.00
2023-04-25T13:49:23.842Z,54.03
2023-04-25T13:52:25.411Z,54.08
2023-04-25T13:55:27.254Z,54.18
2023-04-25T13:58:28.733Z,54.54
2023-04-25T14:01:32.071Z,54.51
2023-04-25T14:04:34.252Z,54.61
2023-04-25T14:07:35.962Z,54.67
2023-04-25T14:10:38.264Z,54.82
2023-04-25T14:13:39.768Z,54.94
2023-04-25T14:16:41.256Z,55.05
2023-04-25T14:19:46.654Z,55.17
2023-04-25T14:22:48.279Z,55.24
2023-04-25T14:25:49.878Z,55.51
2023-04-25T14:28:52.585Z,55.47
2023-04-25T14:31:55.245Z,55.42
2023-04-25T14:34:56.763Z,55.30
2023-04-25T14:37:58.680Z,55.70
2023-04-25T14:41:00.542Z,56.22
2023-04-25T14:44:02.263Z,55.92
2023-04-25T14:47:03.862Z,56.13
2023-04-25T14:50:06.753Z,56.06
2023-04-25T14:53:08.879Z,56.22
2023-04-25T14:56:10.392Z,56.31
2023-04-25T14:59:11.958Z,56.09
2023-04-25T15:02:13.780Z,56.35
2023-04-25T15:05:16.098Z,56.36
2023-04-25T15:08:17.618Z,56.26
2023-04-25T15:11:21.387Z,56.34
2023-04-25T15:14:22.895Z,56.31
2023-04-25T15:17:24.384Z,56.07
2023-04-25T15:20:26.159Z,56.07
2023-04-25T15:23:29.625Z,56.28
2023-04-25T15:26:31.331Z,52.64
2023-04-25T15:29:32.893Z,47.24
2023-04-25T15:32:35.126Z,44.45
2023-04-25T15:35:36.832Z,42.29
2023-04-25T15:38:38.299Z,41.18
2023-04-25T15:41:42.557Z,40.57
2023-04-25T15:44:44.032Z,40.39
2023-04-25T15:47:45.812Z,40.46
2023-04-25T15:50:47.422Z,40.46
2023-04-25T15:53:49.167Z,40.24
2023-04-25T15:56:51.095Z,40.51
2023-04-25T15:59:52.798Z,39.67
2023-04-25T16:02:54.588Z,39.48
2023-04-25T16:05:56.262Z,39.46
2023-04-25T16:08:57.836Z,39.21
2023-04-25T16:11:59.430Z,41.16
2023-04-25T16:15:01.074Z,42.04
2023-04-25T16:18:03.239Z,41.82
2023-04-25T16:21:04.863Z,43.30
2023-04-25T16:24:06.713Z,43.81
2023-04-25T16:27:08.229Z,44.40
2023-04-25T16:30:11.515Z,44.08
2023-04-25T16:33:13.094Z,44.58
2023-04-25T16:36:14.613Z,44.54
2023-04-25T16:39:16.474Z,45.37
2023-04-25T16:42:17.984Z,45.74
2023-04-25T16:45:21.117Z,45.63
2023-04-25T16:48:24.274Z,45.05
2023-04-25T16:51:26.255Z,44.31
2023-04-25T16:54:27.704Z,43.76
2023-04-25T16:57:29.192Z,45.33
2023-04-25T17:00:31.006Z,46.66
2023-04-25T17:03:34.695Z,47.05
2023-04-25T17:06:36.980Z,47.84
2023-04-25T17:09:38.867Z,48.31
2023-04-25T17:12:40.403Z,48.75
2023-04-25T17:15:42.192Z,48.99
2023-04-25T17:18:43.912Z,49.29
2023-04-25T17:21:45.631Z,49.64
2023-04-25T17:24:47.155Z,50.12
2023-04-25T17:27:48.833Z,50.15
2023-04-25T17:30:51.437Z,50.22
2023-04-25T17:33:53.016Z,50.51
2023-04-25T17:36:54.632Z,50.54
2023-04-25T17:39:56.139Z,50.73
2023-04-25T17:42:57.622Z,50.89
2023-04-25T17:45:59.404Z,50.93
2023-04-25T17:49:01.189Z,50.91
2023-04-25T17:52:02.845Z,51.25
2023-04-25T17:55:06.448Z,50.82
2023-04-25T17:58:07.900Z,51.39
2023-04-25T18:01:09.519Z,51.25
2023-04-25T18:04:11.009Z,51.30
2023-04-25T18:07:12.517Z,51.50
2023-04-25T18:10:14.543Z,51.47
2023-04-25T18:13:17.255Z,51.61
2023-04-25T18:16:18.921Z,51.78
2023-04-25T18:19:23.923Z,51.74
2023-04-25T18:22:25.536Z,51.94
2023-04-25T18:25:27.153Z,51.92
2023-04-25T18:28:29.164Z,51.98
2023-04-25T18:31:32.100Z,52.04
2023-04-25T18:34:34.180Z,52.18
2023-04-25T18:37:36.072Z,52.13
2023-04-25T18:40:44.153Z,52.15
2023-04-25T18:43:58.510Z,52.44
2023-04-25T18:46:59.969Z,52.73
2023-04-25T18:50:01.658Z,52.47
2023-04-25T18:53:03.332Z,52.60
2023-04-25T18:56:04.885Z,52.62
2023-04-25T18:59:06.632Z,52.75
2023-04-25T19:02:09.243Z,52.77
2023-04-25T19:05:10.849Z,52.85
2023-04-25T19:08:12.323Z,52.96
2023-04-25T19:11:20.986Z,53.17
2023-04-25T19:14:22.968Z,53.19
2023-04-25T19:17:24.606Z,53.13
2023-04-25T19:20:26.630Z,53.07
2023-04-25T19:23:31.106Z,53.41
2023-04-25T19:26:32.727Z,53.47
2023-04-25T19:29:34.653Z,53.39
2023-04-25T19:32:37.325Z,53.55
2023-04-25T19:35:38.789Z,53.58
2023-04-25T19:38:40.270Z,53.74
2023-04-25T19:41:41.771Z,53.79
2023-04-25T19:44:43.287Z,53.62
2023-04-25T19:47:44.915Z,53.81
2023-04-25T19:50:46.518Z,53.78
2023-04-25T19:53:47.994Z,53.89
2023-04-25T19:56:49.678Z,53.97
2023-04-25T19:59:51.327Z,53.81
2023-04-25T20:02:52.973Z,53.92
2023-04-25T20:05:54.515Z,53.99
2023-04-25T20:08:56.244Z,53.76
2023-04-25T20:11:57.782Z,53.64
2023-04-25T20:14:59.239Z,53.74
2023-04-25T20:18:00.887Z,54.05
2023-04-25T20:21:02.650Z,53.62
2023-04-25T20:24:04.703Z,53.59
2023-04-25T20:27:07.235Z,53.48
2023-04-25T20:30:10.486Z,53.69
2023-04-25T20:33:12.136Z,53.68
2023-04-25T20:36:15.510Z,53.48
2023-04-25T20:39:17.194Z,53.57
2023-04-25T20:42:19.679Z,53.46
2023-04-25T20:45:21.212Z,53.62
2023-04-25T20:48:22.704Z,53.46
2023-04-25T20:51:24.250Z,53.63
2023-04-25T20:54:27.028Z,53.89
2023-04-25T20:57:29.196Z,53.79
2023-04-25T21:00:30.745Z,53.65
2023-04-25T21:03:33.715Z,53.85
2023-04-25T21:06:35.295Z,53.56
2023-04-25T21:09:36.773Z,53.60
2023-04-25T21:12:38.364Z,53.86
2023-04-25T21:15:39.897Z,53.89
2023-04-25T21:18:41.415Z,54.01
2023-04-25T21:21:42.992Z,54.04
2023-04-25T21:24:44.550Z,54.53
2023-04-25T21:27:47.601Z,54.05
2023-04-25T21:30:49.219Z,54.21
2023-04-25T21:33:50.745Z,54.33
2023-04-25T21:36:52.200Z,54.35
2023-04-25T21:39:54.363Z,54.44
2023-04-25T21:42:56.731Z,54.45
2023-04-25T21:46:21.738Z,54.37
2023-04-25T21:49:19.742Z,54.64
2023-04-25T21:52:21.343Z,54.47
2023-04-25T21:55:23.000Z,54.62
2023-04-25T21:58:24.725Z,54.54
2023-04-25T22:01:27.469Z,54.71
2023-04-25T22:04:29.266Z,54.72
2023-04-25T22:07:31.015Z,54.73
2023-04-25T22:10:32.534Z,54.82
2023-04-25T22:13:34.061Z,55.12
2023-04-25T22:16:35.645Z,54.96
2023-04-25T22:19:37.228Z,54.83
2023-04-25T22:22:39.752Z,55.09
2023-04-25T22:25:41.976Z,55.24
2023-04-25T22:28:43.454Z,55.19
2023-04-25T22:31:44.938Z,55.41
2023-04-25T22:34:46.624Z,55.32
2023-04-25T22:37:48.132Z,55.40
2023-04-25T22:40:52.162Z,55.36
2023-04-25T22:43:53.859Z,55.69
2023-04-25T22:46:55.467Z,55.61
2023-04-25T22:49:57.861Z,55.48
2023-04-25T22:52:59.379Z,55.45
2023-04-25T22:56:00.938Z,55.66
2023-04-25T22:59:02.495Z,55.62
2023-04-25T23:02:04.062Z,55.74
2023-04-25T23:05:06.983Z,55.72
2023-04-25T23:08:08.589Z,55.74
2023-04-25T23:11:10.127Z,55.72
2023-04-25T23:14:11.669Z,55.93
2023-04-25T23:17:13.616Z,55.83
2023-04-25T23:20:15.242Z,55.90
2023-04-25T23:23:16.974Z,55.67
2023-04-25T23:26:18.730Z,56.02
2023-04-25T23:29:20.209Z,56.08
2023-04-25T23:32:22.272Z,55.92
2023-04-25T23:35:23.834Z,56.18
2023-04-25T23:38:25.471Z,56.00
2023-04-25T23:41:27.149Z,55.99
2023-04-25T23:44:28.638Z,56.02
2023-04-25T23:47:30.169Z,56.07
2023-04-25T23:50:32.077Z,56.09
2023-04-25T23:53:33.559Z,56.11
2023-04-25T23:56:35.012Z,56.26
2023-04-25T23:59:36.464Z,56.02
